Time;durP1;ratioP1;P1;durP2;ratioP2;P2;SDS_P1;SDS_P2;PMS_P1;PMS_P2;Temp;Humidity;BMP_temperature;BMP_pressure;BME280_temperature;BME280_humidity;BME280_pressure;Samples;Min_cycle;Max_cycle;Signal;HPM_P1;HPM_P2
2023/03/22 00:01:11;;;;;;;14.05;8.25;;;10.30;34.60;;;;;;5034980;28;20614;-63
2023/03/22 00:03:37;;;;;;;12.75;7.55;;;10.40;28.90;;;;;;5033893;28;20495;-63
2023/03/22 00:06:03;;;;;;;14.20;8.57;;;10.40;27.30;;;;;;5034213;28;20040;-63
2023/03/22 00:08:29;;;;;;;14.75;8.15;;;10.50;26.50;;;;;;5035289;28;20022;-63
2023/03/22 00:10:54;;;;;;;11.95;7.45;;;10.60;23.30;;;;;;5034930;28;20022;-64
2023/03/22 00:13:20;;;;;;;11.77;7.95;;;10.60;19.30;;;;;;5035027;28;20029;-63
2023/03/22 00:15:47;;;;;;;10.88;7.40;;;10.60;20.00;;;;;;5035202;28;20021;-65
2023/03/22 00:18:15;;;;;;;11.70;7.82;;;10.70;15.50;;;;;;5035006;28;20029;-65
2023/03/22 00:20:57;;;;;;;13.27;8.77;;;10.60;17.50;;;;;;5034979;28;20064;-63
2023/03/22 00:23:24;;;;;;;14.45;7.57;;;10.60;18.40;;;;;;5033863;28;20075;-64
2023/03/22 00:25:50;;;;;;;16.95;8.05;;;10.60;20.30;;;;;;5034795;28;20022;-63
2023/03/22 00:28:16;;;;;;;13.02;8.60;;;10.50;23.50;;;;;;5033610;28;20155;-63
2023/03/22 00:30:49;;;;;;;14.27;8.02;;;10.50;23.70;;;;;;5033622;28;20040;-63
2023/03/22 00:33:14;;;;;;;19.38;8.20;;;10.50;22.90;;;;;;5033781;28;20480;-63
2023/03/22 00:35:48;;;;;;;15.23;7.78;;;10.60;23.10;;;;;;5034680;28;20041;-63
2023/03/22 00:38:14;;;;;;;14.65;7.85;;;10.70;15.00;;;;;;5034649;28;20040;-63
2023/03/22 00:40:40;;;;;;;15.43;8.43;;;10.70;13.90;;;;;;5034345;28;20037;-63
2023/03/22 00:43:06;;;;;;;13.05;7.82;;;10.60;16.90;;;;;;5034639;28;20053;-63
2023/03/22 00:45:35;;;;;;;11.82;7.60;;;10.60;20.70;;;;;;5032622;28;20467;-63
2023/03/22 00:48:00;;;;;;;13.30;7.72;;;10.70;18.90;;;;;;5034583;28;20368;-63
2023/03/22 00:50:26;;;;;;;11.63;7.68;;;10.70;20.30;;;;;;5034240;28;20128;-63
2023/03/22 00:52:51;;;;;;;13.60;8.13;;;10.70;19.40;;;;;;5034533;28;20112;-64
2023/03/22 00:55:17;;;;;;;13.40;8.32;;;10.80;14.20;;;;;;5034235;28;20021;-64
2023/03/22 00:57:43;;;;;;;13.95;8.00;;;10.70;16.40;;;;;;5034414;28;20025;-63
2023/03/22 01:00:12;;;;;;;15.35;8.13;;;10.80;13.00;;;;;;5034061;28;20091;-63
2023/03/22 01:02:39;;;;;;;14.73;7.57;;;10.80;9.60;;;;;;5032778;28;20068;-63
2023/03/22 01:05:05;;;;;;;12.18;7.90;;;10.90;8.30;;;;;;5033981;28;20476;-63
2023/03/22 01:07:32;;;;;;;15.98;8.00;;;10.90;3.20;;;;;;5033929;28;20025;-63
2023/03/22 01:09:57;;;;;;;12.75;7.80;;;11.00;1.00;;;;;;5034124;28;20396;-63
2023/03/22 01:12:23;;;;;;;13.68;7.63;;;11.00;1.00;;;;;;5033946;28;20039;-63
2023/03/22 01:14:49;;;;;;;12.32;7.25;;;11.00;2.30;;;;;;5033874;28;20029;-63
2023/03/22 01:17:14;;;;;;;16.70;8.48;;;11.00;1.00;;;;;;5033845;28;20376;-64
2023/03/22 01:19:40;;;;;;;11.73;7.97;;;11.00;3.00;;;;;;5033664;28;20033;-63
2023/03/22 01:22:06;;;;;;;20.00;8.70;;;11.00;1.00;;;;;;5033630;28;20029;-63
2023/03/22 01:24:32;;;;;;;13.88;8.43;;;11.00;1.00;;;;;;5033701;28;20472;-63
2023/03/22 01:26:58;;;;;;;19.73;8.95;;;11.00;1.00;;;;;;5032639;28;20368;-63
2023/03/22 01:29:25;;;;;;;15.63;8.40;;;11.00;3.00;;;;;;5033832;28;20026;-63
2023/03/22 01:31:51;;;;;;;13.95;8.65;;;11.00;1.00;;;;;;5032606;28;20108;-63
2023/03/22 01:34:17;;;;;;;14.77;9.55;;;11.00;1.00;;;;;;5032601;28;20120;-63
2023/03/22 01:36:42;;;;;;;15.80;8.63;;;11.10;1.00;;;;;;5032483;28;20464;-63
2023/03/22 01:39:08;;;;;;;14.50;9.30;;;11.10;1.00;;;;;;5032478;28;20075;-63
2023/03/22 01:41:36;;;;;;;15.77;10.00;;;11.00;1.00;;;;;;5033361;28;20032;-63
2023/03/22 01:44:10;;;;;;;16.55;9.35;;;11.10;3.00;;;;;;5032191;28;20079;-63
2023/03/22 01:46:35;;;;;;;13.82;9.07;;;11.00;8.20;;;;;;5032480;28;20025;-63
2023/03/22 01:49:03;;;;;;;12.57;8.73;;;10.90;5.90;;;;;;5033411;28;20498;-63
2023/03/22 01:51:29;;;;;;;13.73;9.40;;;10.90;4.30;;;;;;5033177;28;20025;-63
2023/03/22 01:54:01;;;;;;;16.25;9.48;;;10.90;5.50;;;;;;5033517;28;20364;-63
2023/03/22 01:56:30;;;;;;;14.82;9.15;;;10.80;10.90;;;;;;5031978;28;20034;-63
2023/03/22 01:58:56;;;;;;;15.80;9.88;;;10.70;11.40;;;;;;5031980;28;20061;-63
2023/03/22 02:01:22;;;;;;;13.05;8.95;;;10.70;11.50;;;;;;5032992;28;20084;-64
2023/03/22 02:04:11;;;;;;;15.73;9.85;;;10.70;12.50;;;;;;5032241;28;20423;-64
2023/03/22 02:06:38;;;;;;;15.38;9.52;;;10.70;13.40;;;;;;5031895;28;20415;-63
2023/03/22 02:09:07;;;;;;;15.13;9.45;;;10.80;13.30;;;;;;5033098;28;20018;-63
2023/03/22 02:11:37;;;;;;;17.23;9.35;;;10.70;12.80;;;;;;5032195;28;20033;-63
2023/03/22 02:14:24;;;;;;;15.18;9.93;;;10.70;16.10;;;;;;5033286;28;20026;-63
2023/03/22 02:17:10;;;;;;;14.93;9.40;;;10.70;18.80;;;;;;5033238;28;20100;-63
2023/03/22 02:23:08;;;;;;;20.58;11.10;;;10.70;19.00;;;;;;5111280;27;20380;-63
2023/03/22 02:25:55;;;;;;;15.45;10.27;;;10.70;18.80;;;;;;5111041;28;20493;-63
2023/03/22 02:28:40;;;;;;;17.52;11.20;;;10.60;17.50;;;;;;5111037;28;20024;-64
2023/03/22 02:31:22;;;;;;;17.15;10.95;;;10.60;18.30;;;;;;5110988;28;20028;-65
2023/03/22 02:36:55;;;;;;;15.75;10.27;;;10.60;21.30;;;;;;5111085;27;20877;-63
2023/03/22 02:39:35;;;;;;;16.45;10.85;;;10.40;30.90;;;;;;5110985;28;20432;-64
2023/03/22 02:42:37;;;;;;;24.08;12.25;;;10.30;33.10;;;;;;5111093;28;20035;-63
2023/03/22 02:45:28;;;;;;;17.08;11.77;;;10.20;38.60;;;;;;5110883;28;20436;-63
2023/03/22 02:48:04;;;;;;;19.20;11.80;;;10.10;45.10;;;;;;5110761;28;20085;-63
2023/03/22 02:50:55;;;;;;;21.83;12.48;;;10.20;49.00;;;;;;5111148;28;20055;-63
2023/03/22 02:53:48;;;;;;;17.52;12.05;;;10.10;47.10;;;;;;5110702;28;20028;-64
2023/03/22 02:56:19;;;;;;;18.95;11.73;;;10.10;52.00;;;;;;5110861;28;20082;-63
2023/03/22 02:58:52;;;;;;;19.73;10.20;;;10.10;54.90;;;;;;5111085;28;20505;-63
2023/03/22 03:01:24;;;;;;;17.90;10.77;;;10.10;54.90;;;;;;5110747;28;20035;-63
2023/03/22 03:03:55;;;;;;;17.02;11.10;;;10.10;54.60;;;;;;5110700;28;20027;-63
2023/03/22 03:06:24;;;;;;;18.85;11.02;;;10.10;55.10;;;;;;5109895;28;20031;-64
2023/03/22 03:08:52;;;;;;;20.92;11.57;;;10.10;58.40;;;;;;5110752;28;20028;-64
2023/03/22 03:11:18;;;;;;;19.27;11.45;;;10.10;58.40;;;;;;5110538;28;20070;-63
2023/03/22 03:13:46;;;;;;;19.20;10.90;;;10.20;54.10;;;;;;5110690;28;20366;-63
2023/03/22 03:16:16;;;;;;;19.30;11.70;;;10.20;54.60;;;;;;5110386;28;20037;-63
2023/03/22 03:19:07;;;;;;;19.13;11.60;;;10.30;53.50;;;;;;5110609;28;20020;-63
2023/03/22 03:22:03;;;;;;;17.13;12.05;;;10.30;53.30;;;;;;5110245;28;20385;-63
2023/03/22 03:24:55;;;;;;;22.45;11.07;;;10.40;48.70;;;;;;5110373;28;20482;-63
2023/03/22 03:27:27;;;;;;;18.73;11.90;;;10.50;48.60;;;;;;5110096;28;20068;-64
2023/03/22 03:30:05;;;;;;;16.35;11.48;;;10.50;45.40;;;;;;5110247;28;20485;-63
2023/03/22 03:32:36;;;;;;;19.77;12.30;;;10.50;45.90;;;;;;5110332;28;20363;-63
2023/03/22 03:35:09;;;;;;;19.40;12.18;;;10.50;45.90;;;;;;5109766;28;20432;-63
2023/03/22 03:37:42;;;;;;;20.20;12.25;;;10.50;45.10;;;;;;5110153;28;20023;-63
2023/03/22 03:40:12;;;;;;;17.95;12.23;;;10.60;42.30;;;;;;5109950;28;20037;-63
2023/03/22 03:42:44;;;;;;;17.80;11.32;;;10.60;36.50;;;;;;5109019;28;20511;-63
2023/03/22 03:45:11;;;;;;;16.48;11.02;;;10.60;37.60;;;;;;5109860;28;20530;-63
2023/03/22 03:47:37;;;;;;;21.35;11.73;;;10.70;37.50;;;;;;5097502;28;20028;-63
2023/03/22 03:50:05;;;;;;;21.52;11.20;;;10.70;40.20;;;;;;5096413;28;20459;-63
2023/03/22 03:52:30;;;;;;;20.65;11.10;;;10.80;30.70;;;;;;5094964;28;20081;-63
2023/03/22 03:54:56;;;;;;;21.45;12.80;;;10.80;28.10;;;;;;5094861;28;20032;-63
2023/03/22 03:57:22;;;;;;;20.55;11.85;;;10.80;30.30;;;;;;5096013;28;20028;-63
2023/03/22 03:59:48;;;;;;;20.60;11.45;;;10.80;28.40;;;;;;5096190;28;20458;-63
2023/03/22 04:02:13;;;;;;;21.50;11.55;;;10.90;28.70;;;;;;5095890;28;20063;-63
2023/03/22 04:04:39;;;;;;;19.27;11.07;;;10.90;28.90;;;;;;5095875;28;20051;-63
2023/03/22 04:07:05;;;;;;;20.20;12.00;;;10.80;30.00;;;;;;5096088;28;20027;-63
2023/03/22 04:09:34;;;;;;;19.98;11.45;;;10.80;31.30;;;;;;5094891;28;20130;-63
2023/03/22 04:12:00;;;;;;;18.33;11.50;;;10.80;29.80;;;;;;5094821;28;20035;-63
2023/03/22 04:14:27;;;;;;;19.70;11.85;;;10.80;30.30;;;;;;5095888;28;20032;-63
2023/03/22 04:16:53;;;;;;;18.35;10.82;;;10.80;31.00;;;;;;5094384;28;20024;-63
2023/03/22 04:19:20;;;;;;;18.35;11.45;;;10.80;31.60;;;;;;5095723;28;20020;-63
2023/03/22 04:21:46;;;;;;;17.63;11.32;;;10.70;33.60;;;;;;5077703;28;20385;-63
2023/03/22 04:24:12;;;;;;;21.35;10.73;;;10.70;30.80;;;;;;5094290;28;20024;-63
2023/03/22 04:26:38;;;;;;;16.25;11.35;;;10.70;30.50;;;;;;5077540;28;20111;-63
2023/03/22 04:29:04;;;;;;;18.48;11.85;;;10.70;33.80;;;;;;5094191;28;20054;-63
2023/03/22 04:31:30;;;;;;;18.20;11.02;;;10.60;35.30;;;;;;5094093;28;20020;-63
2023/03/22 04:33:56;;;;;;;17.75;11.20;;;10.60;41.00;;;;;;5095585;28;20047;-63
2023/03/22 04:36:23;;;;;;;17.25;11.35;;;10.40;42.60;;;;;;5093788;28;20465;-63
2023/03/22 04:38:50;;;;;;;16.88;10.75;;;10.40;45.60;;;;;;5095357;28;20020;-63
2023/03/22 04:41:16;;;;;;;20.45;11.63;;;10.40;46.50;;;;;;5093928;28;20016;-63
2023/03/22 04:43:45;;;;;;;16.33;10.73;;;10.30;49.50;;;;;;5095118;28;20474;-63
2023/03/22 04:46:11;;;;;;;20.17;11.88;;;10.20;54.20;;;;;;5095054;28;20024;-63
2023/03/22 04:48:39;;;;;;;21.13;11.73;;;10.10;59.00;;;;;;5095006;28;20122;-64
2023/03/22 04:51:05;;;;;;;20.75;11.32;;;10.10;59.10;;;;;;5094971;28;20027;-63
2023/03/22 04:53:31;;;;;;;18.50;11.15;;;10.00;63.70;;;;;;5095195;28;20114;-63
2023/03/22 04:55:57;;;;;;;20.52;11.70;;;10.00;66.40;;;;;;5093698;28;20028;-63
2023/03/22 04:58:24;;;;;;;19.08;11.65;;;10.00;66.30;;;;;;5094102;28;20401;-63
2023/03/22 05:00:52;;;;;;;17.85;11.90;;;9.90;64.00;;;;;;5094963;28;20020;-63
2023/03/22 05:03:19;;;;;;;15.38;11.30;;;9.90;72.00;;;;;;5094787;28;20032;-63
2023/03/22 05:05:55;;;;;;;18.95;11.57;;;9.90;74.20;;;;;;5093774;28;20028;-63
2023/03/22 05:08:24;;;;;;;20.75;11.60;;;9.80;73.20;;;;;;5095165;28;20028;-63
2023/03/22 05:10:51;;;;;;;19.50;11.32;;;9.80;77.50;;;;;;5094704;28;20028;-63
2023/03/22 05:13:18;;;;;;;19.33;11.63;;;9.70;74.90;;;;;;5093422;28;20088;-63
2023/03/22 05:15:44;;;;;;;19.17;11.25;;;9.70;85.60;;;;;;5094377;28;20028;-63
2023/03/22 05:18:10;;;;;;;21.55;11.52;;;9.60;87.20;;;;;;5093565;28;20024;-63
2023/03/22 05:20:36;;;;;;;18.10;10.40;;;9.60;87.80;;;;;;5094333;28;20473;-63
2023/03/22 05:23:03;;;;;;;20.92;10.90;;;9.60;90.80;;;;;;5094430;28;20024;-64
2023/03/22 05:25:29;;;;;;;19.25;11.32;;;9.50;91.90;;;;;;5094367;28;20024;-64
2023/03/22 05:28:00;;;;;;;14.00;10.32;;;9.50;93.50;;;;;;5094541;28;20412;-63
2023/03/22 05:30:26;;;;;;;21.58;11.25;;;9.60;93.40;;;;;;5094277;28;20051;-63
2023/03/22 05:32:56;;;;;;;18.88;11.02;;;9.60;91.30;;;;;;5094266;28;20031;-64
2023/03/22 05:35:22;;;;;;;18.45;11.02;;;9.70;90.70;;;;;;5093968;28;20448;-63
2023/03/22 05:37:47;;;;;;;15.63;10.05;;;9.70;84.70;;;;;;5094428;28;20035;-63
2023/03/22 05:40:13;;;;;;;20.55;10.73;;;9.70;83.50;;;;;;5093933;28;20029;-63
2023/03/22 05:42:39;;;;;;;18.42;11.05;;;9.80;84.50;;;;;;5094356;28;20028;-63
2023/03/22 05:45:05;;;;;;;21.13;10.15;;;9.90;75.30;;;;;;5094006;28;20051;-63
2023/03/22 05:47:30;;;;;;;16.45;9.98;;;10.00;72.70;;;;;;5093861;28;20028;-63
2023/03/22 05:49:56;;;;;;;16.20;10.00;;;10.00;66.40;;;;;;5093878;28;20054;-64
2023/03/22 05:52:21;;;;;;;18.75;10.20;;;10.10;66.90;;;;;;5094092;28;20020;-64
2023/03/22 05:54:47;;;;;;;18.02;9.65;;;10.10;63.30;;;;;;5093883;28;20106;-63
2023/03/22 05:57:12;;;;;;;16.40;9.75;;;10.30;58.80;;;;;;5093861;28;20024;-63
2023/03/22 05:59:38;;;;;;;16.17;8.65;;;10.40;50.50;;;;;;5093679;28;20062;-63
2023/03/22 06:02:03;;;;;;;17.42;9.27;;;10.40;48.50;;;;;;5093633;28;20028;-63
2023/03/22 06:04:29;;;;;;;12.23;9.15;;;10.60;41.50;;;;;;5093707;28;20024;-63
2023/03/22 06:06:54;;;;;;;18.25;9.20;;;10.60;35.90;;;;;;5093574;28;20035;-63
2023/03/22 06:09:20;;;;;;;15.77;8.95;;;10.70;31.10;;;;;;5093463;28;20040;-63
2023/03/22 06:11:45;;;;;;;15.90;8.23;;;10.80;24.50;;;;;;5093728;28;20043;-63
2023/03/22 06:14:11;;;;;;;21.58;8.18;;;11.00;18.60;;;;;;5093319;28;20035;-63
2023/03/22 06:16:36;;;;;;;17.73;8.82;;;11.10;20.30;;;;;;5093466;28;20114;-63
2023/03/22 06:19:02;;;;;;;17.60;9.73;;;11.20;12.90;;;;;;5093416;28;20058;-63
2023/03/22 06:21:28;;;;;;;16.20;8.48;;;11.20;7.00;;;;;;5093726;28;20103;-63
2023/03/22 06:23:53;;;;;;;14.77;8.73;;;11.20;6.00;;;;;;5093332;28;20020;-64
2023/03/22 06:26:19;;;;;;;14.57;9.00;;;11.20;8.90;;;;;;5093385;28;20546;-63
2023/03/22 06:28:44;;;;;;;17.27;9.20;;;11.10;13.40;;;;;;5093284;28;20043;-63
2023/03/22 06:31:10;;;;;;;15.48;8.45;;;11.00;16.20;;;;;;5093240;28;20124;-63
2023/03/22 06:33:36;;;;;;;15.88;8.82;;;11.00;17.90;;;;;;5093274;28;20024;-63
2023/03/22 06:36:02;;;;;;;13.93;8.52;;;11.00;20.20;;;;;;5093032;28;20056;-63
2023/03/22 06:38:29;;;;;;;14.98;8.93;;;11.00;18.20;;;;;;5093260;28;20532;-63
2023/03/22 06:40:55;;;;;;;13.60;8.30;;;11.00;19.30;;;;;;5093266;28;20027;-63
2023/03/22 06:43:20;;;;;;;15.52;9.18;;;11.00;19.70;;;;;;5093289;28;20521;-63
2023/03/22 06:45:47;;;;;;;18.20;9.27;;;11.10;17.30;;;;;;5093101;28;20028;-63
2023/03/22 06:48:12;;;;;;;17.45;8.80;;;11.20;13.30;;;;;;5093316;28;20024;-63
2023/03/22 06:50:40;;;;;;;18.15;8.20;;;11.30;6.60;;;;;;5093106;28;20031;-63
2023/03/22 06:53:06;;;;;;;16.33;8.38;;;11.40;4.90;;;;;;5093137;28;20115;-63
2023/03/22 06:55:33;;;;;;;16.13;9.00;;;11.50;1.00;;;;;;5091906;28;20035;-64
2023/03/22 06:58:00;;;;;;;15.80;8.05;;;11.70;1.00;;;;;;5093226;28;20028;-63
2023/03/22 07:00:25;;;;;;;15.20;8.43;;;11.70;1.00;;;;;;5091948;28;20024;-63
2023/03/22 07:02:51;;;;;;;14.00;7.95;;;11.80;1.00;;;;;;5092602;28;20511;-63
2023/03/22 07:05:16;;;;;;;14.68;7.63;;;11.80;1.00;;;;;;5092938;28;20034;-63
2023/03/22 07:07:42;;;;;;;15.60;7.55;;;11.80;1.00;;;;;;5092938;28;20028;-63
2023/03/22 07:10:08;;;;;;;13.80;7.85;;;11.80;1.00;;;;;;5092626;28;20539;-63
2023/03/22 07:12:34;;;;;;;17.52;8.02;;;11.90;1.00;;;;;;5093114;28;20025;-63
2023/03/22 07:14:59;;;;;;;14.48;7.82;;;11.90;1.00;;;;;;5092875;28;20358;-63
2023/03/22 07:17:25;;;;;;;15.18;7.72;;;11.90;1.00;;;;;;5093112;28;20067;-63
2023/03/22 07:19:50;;;;;;;14.10;6.88;;;11.90;1.00;;;;;;5092978;28;20028;-63
2023/03/22 07:22:16;;;;;;;15.95;7.70;;;12.00;1.00;;;;;;5094884;28;20031;-63
2023/03/22 07:24:41;;;;;;;11.65;6.93;;;12.00;1.00;;;;;;5096857;28;20542;-62
2023/03/22 07:27:07;;;;;;;12.07;7.32;;;11.90;1.00;;;;;;5096385;28;20450;-62
2023/03/22 07:29:33;;;;;;;9.90;6.55;;;12.00;1.00;;;;;;5096506;28;20028;-61
2023/03/22 07:31:58;;;;;;;12.77;7.07;;;11.90;1.00;;;;;;5096596;28;20031;-62
2023/03/22 07:34:24;;;;;;;13.95;7.28;;;12.00;1.00;;;;;;5096213;28;20043;-62
2023/03/22 07:36:50;;;;;;;14.27;6.32;;;11.90;1.00;;;;;;5096661;28;20398;-62
2023/03/22 07:39:15;;;;;;;16.67;6.57;;;11.90;1.00;;;;;;5096325;28;20037;-61
2023/03/22 07:41:41;;;;;;;15.18;6.20;;;12.00;1.00;;;;;;5094953;28;20036;-62
2023/03/22 07:44:06;;;;;;;13.13;6.53;;;12.00;1.00;;;;;;5096205;28;20022;-62
2023/03/22 07:46:32;;;;;;;19.45;6.90;;;12.10;1.00;;;;;;5096402;28;20056;-62
2023/03/22 07:48:57;;;;;;;11.82;6.10;;;12.30;1.00;;;;;;5096332;28;20028;-62
2023/03/22 07:51:23;;;;;;;15.20;5.82;;;12.80;1.00;;;;;;5096194;28;20032;-62
2023/03/22 07:53:49;;;;;;;9.77;5.57;;;12.60;1.00;;;;;;5096289;28;20020;-62
2023/03/22 07:56:14;;;;;;;12.25;5.90;;;12.60;1.00;;;;;;5095842;28;20408;-62
2023/03/22 07:58:40;;;;;;;11.45;6.03;;;12.50;1.00;;;;;;5095784;28;20585;-62
2023/03/22 08:01:07;;;;;;;14.00;6.18;;;12.40;1.00;;;;;;5096172;28;20027;-62
2023/03/22 08:03:35;;;;;;;9.07;5.63;;;12.30;1.00;;;;;;5095977;28;20209;-62
2023/03/22 08:06:05;;;;;;;10.02;5.30;;;12.40;1.00;;;;;;5094689;28;20502;-62
2023/03/22 08:08:31;;;;;;;10.45;5.65;;;12.90;1.00;;;;;;5095829;28;20107;-62
2023/03/22 08:10:57;;;;;;;9.88;4.78;;;13.10;1.00;;;;;;5092566;28;20074;-62
2023/03/22 08:13:22;;;;;;;9.50;4.90;;;13.40;1.00;;;;;;5094365;28;20404;-62
2023/03/22 08:15:48;;;;;;;12.85;5.20;;;13.70;1.00;;;;;;5092102;28;20476;-62
2023/03/22 08:18:13;;;;;;;9.27;4.40;;;13.90;99.90;;;;;;5092322;28;20106;-62
2023/03/22 08:20:39;;;;;;;10.15;4.85;;;14.90;99.90;;;;;;5094397;28;20028;-62
2023/03/22 08:23:06;;;;;;;9.90;4.35;;;15.50;46.20;;;;;;5094461;28;20028;-62
2023/03/22 08:25:32;;;;;;;10.98;4.50;;;15.60;1.00;;;;;;5095502;28;20031;-62
2023/03/22 08:27:58;;;;;;;11.63;4.75;;;15.30;1.00;;;;;;5094204;28;20099;-62
2023/03/22 08:30:24;;;;;;;11.45;4.78;;;15.60;99.90;;;;;;5095470;28;20024;-62
2023/03/22 08:32:49;;;;;;;8.95;4.50;;;15.20;1.00;;;;;;5095244;28;20032;-63
2023/03/22 08:35:15;;;;;;;9.57;4.75;;;14.80;99.90;;;;;;5094943;28;20448;-62
2023/03/22 08:37:40;;;;;;;10.98;4.85;;;14.60;1.00;;;;;;5095002;28;20443;-62
2023/03/22 08:40:08;;;;;;;8.52;4.75;;;14.20;1.00;;;;;;5095206;28;20028;-62
2023/03/22 08:42:34;;;;;;;10.50;5.03;;;14.10;1.00;;;;;;5094114;28;20474;-62
2023/03/22 08:45:00;;;;;;;11.90;4.78;;;13.90;99.90;;;;;;5095186;28;20367;-62
2023/03/22 08:47:25;;;;;;;9.68;4.47;;;14.00;99.90;;;;;;5094907;28;20027;-62
2023/03/22 08:49:51;;;;;;;9.85;4.03;;;14.10;99.90;;;;;;5095269;28;20085;-62
2023/03/22 08:52:16;;;;;;;7.15;4.40;;;13.80;1.00;;;;;;5095175;28;20502;-62
2023/03/22 08:54:42;;;;;;;13.73;3.88;;;13.70;64.50;;;;;;5094844;28;20115;-62
2023/03/22 08:57:09;;;;;;;6.97;3.67;;;13.70;1.00;;;;;;5095086;28;20034;-62
2023/03/22 08:59:34;;;;;;;10.48;3.85;;;13.50;1.00;;;;;;5095026;28;20032;-62
2023/03/22 09:02:00;;;;;;;10.93;4.03;;;13.50;1.00;;;;;;5094651;28;20020;-62
2023/03/22 09:04:26;;;;;;;12.88;4.07;;;13.40;1.00;;;;;;5094585;28;20043;-62
2023/03/22 09:06:51;;;;;;;11.52;3.58;;;13.90;99.90;;;;;;5094620;28;20059;-62
2023/03/22 09:09:17;;;;;;;8.35;3.38;;;;;;;;;;5094548;28;20074;-62
2023/03/22 09:11:43;;;;;;;9.95;3.40;;;14.20;91.90;;;;;;5094607;28;20032;-62
2023/03/22 09:14:09;;;;;;;10.80;3.70;;;14.50;1.00;;;;;;5094545;28;20020;-65
2023/03/22 09:16:35;;;;;;;7.32;3.13;;;14.50;1.00;;;;;;5094683;28;20107;-62
2023/03/22 09:19:03;;;;;;;10.40;3.22;;;;;;;;;;5094183;28;20024;-62
2023/03/22 09:21:29;;;;;;;7.40;3.38;;;;;;;;;;5094316;28;20040;-62
2023/03/22 09:23:56;;;;;;;5.70;3.00;;;;;;;;;;5094379;28;20019;-62
2023/03/22 09:26:23;;;;;;;7.07;2.97;;;;;;;;;;5094165;28;20477;-62
2023/03/22 09:28:49;;;;;;;7.90;3.17;;;;;;;;;;5094210;28;20024;-62
2023/03/22 09:31:15;;;;;;;12.35;3.20;;;;;;;;;;5094156;28;20059;-62
2023/03/22 09:33:41;;;;;;;11.73;2.75;;;;;;;;;;5093108;28;20032;-62
2023/03/22 09:36:08;;;;;;;6.97;2.70;;;14.80;1.00;;;;;;5092614;28;20044;-62
2023/03/22 09:38:35;;;;;;;9.00;2.80;;;14.70;1.00;;;;;;5093259;28;20035;-62
2023/03/22 09:41:06;;;;;;;8.35;2.55;;;14.60;1.00;;;;;;5094376;28;20470;-62
2023/03/22 09:43:36;;;;;;;7.70;2.33;;;14.70;4.70;;;;;;5094095;28;20035;-62
2023/03/22 09:46:05;;;;;;;8.13;2.90;;;14.70;1.00;;;;;;5093674;28;20394;-62
2023/03/22 09:48:33;;;;;;;7.82;2.50;;;14.60;1.00;;;;;;5094024;28;20020;-65
2023/03/22 09:51:01;;;;;;;7.28;2.83;;;14.80;1.00;;;;;;5094051;28;20028;-62
2023/03/22 09:53:29;;;;;;;6.53;2.50;;;15.60;84.10;;;;;;5092697;28;20117;-62
2023/03/22 09:56:17;;;;;;;5.43;2.78;;;16.00;1.00;;;;;;5093706;28;20492;-62
2023/03/22 09:58:52;;;;;;;8.05;2.53;;;15.40;99.90;;;;;;5092700;28;20031;-62
2023/03/22 10:01:47;;;;;;;9.35;3.13;;;15.00;1.00;;;;;;5092879;28;20038;-62
2023/03/22 10:04:46;;;;;;;6.45;3.22;;;15.30;99.90;;;;;;5092313;28;20086;-63
2023/03/22 10:07:33;;;;;;;6.55;3.22;;;15.90;99.90;;;;;;5091998;28;20128;-66
2023/03/22 10:10:11;;;;;;;7.07;3.10;;;15.30;99.90;;;;;;5082719;28;20036;-66
2023/03/22 10:12:53;;;;;;;9.07;3.50;;;15.50;99.90;;;;;;5080815;28;20044;-62
2023/03/22 10:15:27;;;;;;;9.45;3.50;;;15.50;1.00;;;;;;5089601;28;20426;-62
2023/03/22 10:17:55;;;;;;;9.82;3.47;;;15.60;99.90;;;;;;5090284;28;20028;-64
2023/03/22 10:20:30;;;;;;;7.82;3.38;;;15.70;99.90;;;;;;5091056;28;20032;-62
2023/03/22 10:22:58;;;;;;;7.75;3.40;;;15.50;99.90;;;;;;5093266;28;20530;-62
2023/03/22 10:25:32;;;;;;;5.95;2.78;;;15.30;1.00;;;;;;5091253;28;20378;-62
2023/03/22 10:27:58;;;;;;;5.63;2.80;;;15.60;1.00;;;;;;5090694;28;20545;-64
2023/03/22 10:30:27;;;;;;;8.57;3.95;;;15.90;1.00;;;;;;5092208;28;20122;-62
2023/03/22 10:33:02;;;;;;;10.30;3.20;;;15.80;1.00;;;;;;5090151;28;20032;-62
2023/03/22 10:35:29;;;;;;;9.77;2.30;;;16.40;1.00;;;;;;5086350;28;20428;-63
2023/03/22 10:37:58;;;;;;;9.13;3.70;;;16.50;99.90;;;;;;5091891;28;20043;-63
2023/03/22 10:40:29;;;;;;;8.95;3.55;;;16.40;99.90;;;;;;5089993;28;20034;-62
2023/03/22 10:42:59;;;;;;;7.38;2.88;;;16.70;99.90;;;;;;5092026;28;20470;-63
2023/03/22 10:45:26;;;;;;;9.75;2.97;;;15.90;99.90;;;;;;5087108;28;20477;-63
2023/03/22 10:48:02;;;;;;;6.35;2.95;;;15.80;1.00;;;;;;5090112;28;20175;-62
2023/03/22 10:50:34;;;;;;;5.05;2.40;;;16.00;1.00;;;;;;5092153;28;20032;-63
2023/03/22 10:53:05;;;;;;;4.68;2.42;;;16.60;1.00;;;;;;5093046;28;20115;-62
2023/03/22 10:55:31;;;;;;;7.00;2.67;;;16.40;1.00;;;;;;5090849;28;20039;-62
2023/03/22 10:58:16;;;;;;;8.98;2.35;;;16.40;99.90;;;;;;5096127;28;20074;-62
2023/03/22 11:00:51;;;;;;;5.43;2.53;;;16.20;99.90;;;;;;5095482;28;20472;-62
2023/03/22 11:03:44;;;;;;;9.52;2.78;;;15.80;99.90;;;;;;5084560;28;20069;-62
2023/03/22 11:06:16;;;;;;;6.43;2.63;;;15.70;1.00;;;;;;5092319;28;20787;-62
2023/03/22 11:08:55;;;;;;;9.32;2.55;;;15.50;1.00;;;;;;5094186;28;20031;-62
2023/03/22 11:11:26;;;;;;;6.40;2.60;;;15.30;1.00;;;;;;5092231;28;20115;-62
2023/03/22 11:14:07;;;;;;;8.07;2.53;;;15.10;1.00;;;;;;5071406;28;20034;-63
2023/03/22 11:17:01;;;;;;;5.38;2.63;;;15.10;99.90;;;;;;5077831;28;20066;-62
2023/03/22 11:19:37;;;;;;;5.75;2.67;;;15.10;99.90;;;;;;5095472;28;20039;-62
2023/03/22 11:22:30;;;;;;;9.00;2.50;;;15.10;1.00;;;;;;5094466;28;20475;-62
2023/03/22 11:24:57;;;;;;;4.63;2.08;;;15.60;99.90;;;;;;5089117;28;20055;-63
2023/03/22 11:27:32;;;;;;;6.88;2.40;;;15.70;99.90;;;;;;5095515;28;20043;-62
2023/03/22 11:30:08;;;;;;;6.45;2.80;;;16.00;99.90;;;;;;5094402;28;20481;-62
2023/03/22 11:32:37;;;;;;;11.25;2.47;;;16.10;99.90;;;;;;5093823;28;20051;-62
2023/03/22 11:35:25;;;;;;;6.03;2.22;;;15.80;1.00;;;;;;5089445;28;20465;-62
2023/03/22 11:37:53;;;;;;;7.10;1.98;;;15.60;1.00;;;;;;5098313;28;20032;-66
2023/03/22 11:40:22;;;;;;;7.80;2.38;;;15.60;1.00;;;;;;5096249;28;20445;-62
2023/03/22 11:42:52;;;;;;;5.55;2.17;;;15.80;1.00;;;;;;5092131;28;20438;-62
2023/03/22 11:45:28;;;;;;;8.13;2.15;;;15.90;99.90;;;;;;5086595;28;20098;-62
2023/03/22 11:48:03;;;;;;;5.03;2.10;;;16.00;1.00;;;;;;5088108;28;20024;-62
2023/03/22 11:50:33;;;;;;;6.03;2.30;;;15.80;1.00;;;;;;5089404;28;20055;-62
2023/03/22 11:53:01;;;;;;;7.28;1.85;;;16.00;1.00;;;;;;5083207;28;20031;-62
2023/03/22 11:55:30;;;;;;;9.20;2.17;;;16.00;1.00;;;;;;5087225;28;20040;-62
2023/03/22 11:57:56;;;;;;;6.43;2.10;;;15.90;99.90;;;;;;5100736;28;20024;-62
2023/03/22 12:00:26;;;;;;;5.35;2.05;;;15.70;99.90;;;;;;5091595;28;20032;-65
2023/03/22 12:03:00;;;;;;;3.67;1.50;;;15.60;99.90;;;;;;5084317;28;20032;-62
2023/03/22 12:05:29;;;;;;;4.35;1.70;;;15.50;99.90;;;;;;5076365;28;20056;-62
2023/03/22 12:08:04;;;;;;;4.80;1.58;;;15.40;99.90;;;;;;5082249;28;20020;-62
2023/03/22 12:10:40;;;;;;;5.43;1.98;;;15.50;99.90;;;;;;5090058;28;20397;-62
2023/03/22 12:13:16;;;;;;;5.28;1.70;;;15.50;1.00;;;;;;5088226;28;20496;-62
2023/03/22 12:15:47;;;;;;;6.82;1.52;;;15.40;99.90;;;;;;5094023;28;20028;-62
2023/03/22 12:18:18;;;;;;;5.80;1.80;;;15.40;99.90;;;;;;5083399;28;20505;-62
2023/03/22 12:20:52;;;;;;;4.35;1.60;;;15.10;99.90;;;;;;5081649;28;20032;-63
2023/03/22 12:23:21;;;;;;;5.10;1.42;;;15.10;1.00;;;;;;5093290;28;20062;-62
2023/03/22 12:25:54;;;;;;;5.25;1.88;;;15.20;99.90;;;;;;5094449;28;20047;-62
2023/03/22 12:28:25;;;;;;;4.72;1.50;;;15.10;1.00;;;;;;5100694;27;20036;-62
2023/03/22 12:30:55;;;;;;;5.50;1.60;;;15.00;1.00;;;;;;5088334;28;20044;-66
2023/03/22 12:33:45;;;;;;;8.20;1.85;;;14.90;1.00;;;;;;5087988;28;20043;-62
2023/03/22 12:36:16;;;;;;;3.80;1.63;;;14.90;1.00;;;;;;5089121;28;20052;-65
2023/03/22 12:38:53;;;;;;;3.80;1.35;;;14.80;14.20;;;;;;5086163;28;20038;-62
2023/03/22 12:41:26;;;;;;;4.90;1.52;;;14.70;99.90;;;;;;5079642;28;21197;-62
2023/03/22 12:43:54;;;;;;;;;;;14.70;97.30;;;;;;5092524;28;20051;-62
2023/03/22 12:46:25;;;;;;;4.45;1.52;;;14.60;99.90;;;;;;5088383;28;19966;-62
2023/03/22 12:49:01;;;;;;;3.47;1.10;;;14.50;99.90;;;;;;5083437;28;20038;-63
2023/03/22 12:51:26;;;;;;;5.25;1.60;;;14.40;99.90;;;;;;5084530;28;20492;-62
2023/03/22 12:53:55;;;;;;;4.72;1.30;;;14.40;99.90;;;;;;5088882;28;20032;-62
2023/03/22 12:56:25;;;;;;;6.20;1.95;;;14.40;1.00;;;;;;5091169;28;20028;-62
2023/03/22 12:58:57;;;;;;;6.57;1.83;;;14.30;99.90;;;;;;5097656;28;20024;-62
2023/03/22 13:01:53;;;;;;;6.40;1.80;;;14.20;94.00;;;;;;5093214;28;20105;-65
2023/03/22 13:09:52;;;;;;;7.30;1.48;;;14.20;99.90;;;;;;5094749;27;20400;-62